Hauptseite
METAR-TAF:

METAR-TAF

Flughäfen :

Flughafen Arequipa

Arequipa, Peru

Breite: 16-19S, Länge: 071-33W, Höhe: 2538 m

Beobachtung

Neuester Wetterbericht von vor 14 Minuten, um 03:00 UTC
Wind 2 kt aus unterschiedlichen Richtungen
Temperatur 13°C
Luftfeuchtigkeit 35%
Luftdruck 1027 hPa
Sichtweite 10 km oder mehr
keine Wolken unter 1500 m und keine Kumulonimbus oder Gewitterwolken

METAR: SPQU 170300Z VRB02KT CAVOK 13/M02 Q1027 RMK PP000

Zeit: 22:14 (03:14 UTC)

Prognose

Neuester Wetterbericht von vor 4 Stunden und 14 Minuten, um 23:00 UTC
Gültige Prognose vom 17 um 00 UTC bis 17 um 24 UTC
Wind 5 kt aus Nord
Sichtweite 10 km oder mehr
keine Wolken unter 1500 m und keine Kumulonimbus oder Gewitterwolken
Übergehend zu
vom 17 um 14 UTC bis 17 um 16 UTC
Wind 10 kt aus West/Südwest

TAF: SPQU 162300Z 1700/1724 01005KT CAVOK TX22/1718Z TN09/1710Z BECMG 1714/1716 24010KT

Wetterbeobachtungen und Prognosen von mehr als 4000 Flughäfen (METAR und TAF Bericht).

Die verfügbaren Stationen werden durch gelbe und rote Markierungen auf der Karte dargestellt.

Führen Sie die Maus auf sie, um den Namen der Station zu sehen.

Darauf klicken, um die Beobachtung von Wetterbeobachtungen und Prognosen zu sehen.

Um die Karte zu ändern : klicken Sie auf den grünen Tasten mit einem schwarzen Kreuz Zum Vergrößern, auf den grünen Button mit einem Gedankenstrich zu verkleinern, oder auf die grünen Pfeile für benachbarte Karten.


METAR-TAF: